sensor_id;sensor_type;location;lat;lon;timestamp;P1;durP1;ratioP1;P2;durP2;ratioP2
21416;SDS011;10869;52.238;10.716;2024-03-07T00:02:19;32.40;;;19.77;;
21416;SDS011;10869;52.238;10.716;2024-03-07T00:04:45;30.57;;;18.50;;
21416;SDS011;10869;52.238;10.716;2024-03-07T00:07:11;34.40;;;20.53;;
21416;SDS011;10869;52.238;10.716;2024-03-07T00:09:37;29.70;;;19.80;;
21416;SDS011;10869;52.238;10.716;2024-03-07T00:12:03;32.60;;;21.40;;
21416;SDS011;10869;52.238;10.716;2024-03-07T00:14:29;31.80;;;20.93;;
21416;SDS011;10869;52.238;10.716;2024-03-07T00:16:57;31.17;;;19.63;;
21416;SDS011;10869;52.238;10.716;2024-03-07T00:19:24;37.03;;;21.10;;
21416;SDS011;10869;52.238;10.716;2024-03-07T00:21:53;30.87;;;19.60;;
21416;SDS011;10869;52.238;10.716;2024-03-07T00:24:19;34.70;;;19.30;;
21416;SDS011;10869;52.238;10.716;2024-03-07T00:26:45;28.43;;;18.53;;
21416;SDS011;10869;52.238;10.716;2024-03-07T00:29:11;32.37;;;20.10;;
21416;SDS011;10869;52.238;10.716;2024-03-07T00:31:37;30.80;;;20.20;;
21416;SDS011;10869;52.238;10.716;2024-03-07T00:34:03;31.23;;;19.93;;
21416;SDS011;10869;52.238;10.716;2024-03-07T00:36:28;31.20;;;19.83;;
21416;SDS011;10869;52.238;10.716;2024-03-07T00:38:54;29.13;;;19.83;;
21416;SDS011;10869;52.238;10.716;2024-03-07T00:41:20;32.13;;;21.40;;
21416;SDS011;10869;52.238;10.716;2024-03-07T00:43:45;35.17;;;19.43;;
21416;SDS011;10869;52.238;10.716;2024-03-07T00:46:12;29.07;;;19.97;;
21416;SDS011;10869;52.238;10.716;2024-03-07T00:48:38;28.07;;;18.60;;
21416;SDS011;10869;52.238;10.716;2024-03-07T00:51:03;29.43;;;19.40;;
21416;SDS011;10869;52.238;10.716;2024-03-07T00:53:29;27.40;;;19.03;;
21416;SDS011;10869;52.238;10.716;2024-03-07T00:55:56;29.83;;;18.10;;
21416;SDS011;10869;52.238;10.716;2024-03-07T00:58:22;29.87;;;19.90;;
21416;SDS011;10869;52.238;10.716;2024-03-07T01:00:48;28.20;;;18.73;;
21416;SDS011;10869;52.238;10.716;2024-03-07T01:03:14;27.80;;;17.60;;
21416;SDS011;10869;52.238;10.716;2024-03-07T01:05:42;32.97;;;19.23;;
21416;SDS011;10869;52.238;10.716;2024-03-07T01:08:08;26.83;;;17.70;;
21416;SDS011;10869;52.238;10.716;2024-03-07T01:10:34;29.33;;;19.37;;
21416;SDS011;10869;52.238;10.716;2024-03-07T01:13:00;26.70;;;18.13;;
21416;SDS011;10869;52.238;10.716;2024-03-07T01:15:27;30.03;;;18.53;;
21416;SDS011;10869;52.238;10.716;2024-03-07T01:17:53;30.57;;;19.00;;
21416;SDS011;10869;52.238;10.716;2024-03-07T01:23:41;31.17;;;20.70;;
21416;SDS011;10869;52.238;10.716;2024-03-07T01:26:07;26.77;;;17.73;;
21416;SDS011;10869;52.238;10.716;2024-03-07T01:28:33;31.37;;;19.13;;
21416;SDS011;10869;52.238;10.716;2024-03-07T01:30:59;30.63;;;19.37;;
21416;SDS011;10869;52.238;10.716;2024-03-07T01:33:25;28.53;;;19.73;;
21416;SDS011;10869;52.238;10.716;2024-03-07T01:35:51;27.60;;;18.70;;
21416;SDS011;10869;52.238;10.716;2024-03-07T01:38:17;29.67;;;19.90;;
21416;SDS011;10869;52.238;10.716;2024-03-07T01:40:43;27.53;;;17.57;;
21416;SDS011;10869;52.238;10.716;2024-03-07T01:43:09;29.13;;;19.37;;
21416;SDS011;10869;52.238;10.716;2024-03-07T01:45:36;27.37;;;19.70;;
21416;SDS011;10869;52.238;10.716;2024-03-07T01:48:05;33.43;;;20.50;;
21416;SDS011;10869;52.238;10.716;2024-03-07T01:50:34;28.07;;;19.13;;
21416;SDS011;10869;52.238;10.716;2024-03-07T01:53:03;29.70;;;17.80;;
21416;SDS011;10869;52.238;10.716;2024-03-07T01:55:31;28.07;;;18.63;;
21416;SDS011;10869;52.238;10.716;2024-03-07T01:57:58;30.83;;;18.83;;
21416;SDS011;10869;52.238;10.716;2024-03-07T02:00:27;32.03;;;20.03;;
21416;SDS011;10869;52.238;10.716;2024-03-07T02:02:53;29.33;;;18.60;;
21416;SDS011;10869;52.238;10.716;2024-03-07T02:05:19;29.90;;;19.50;;
21416;SDS011;10869;52.238;10.716;2024-03-07T02:07:46;31.80;;;19.67;;
21416;SDS011;10869;52.238;10.716;2024-03-07T02:10:12;30.27;;;19.93;;
21416;SDS011;10869;52.238;10.716;2024-03-07T02:12:38;30.77;;;19.90;;
21416;SDS011;10869;52.238;10.716;2024-03-07T02:15:04;34.57;;;19.83;;
21416;SDS011;10869;52.238;10.716;2024-03-07T02:17:30;30.53;;;20.43;;
21416;SDS011;10869;52.238;10.716;2024-03-07T02:19:57;28.83;;;19.73;;
21416;SDS011;10869;52.238;10.716;2024-03-07T02:22:23;30.40;;;19.90;;
21416;SDS011;10869;52.238;10.716;2024-03-07T02:24:51;29.40;;;18.90;;
21416;SDS011;10869;52.238;10.716;2024-03-07T02:27:18;30.33;;;20.83;;
21416;SDS011;10869;52.238;10.716;2024-03-07T02:29:43;32.50;;;20.73;;
21416;SDS011;10869;52.238;10.716;2024-03-07T02:32:09;31.20;;;19.03;;
21416;SDS011;10869;52.238;10.716;2024-03-07T02:37:58;30.90;;;20.53;;
21416;SDS011;10869;52.238;10.716;2024-03-07T02:40:24;33.53;;;21.17;;
21416;SDS011;10869;52.238;10.716;2024-03-07T02:42:49;32.53;;;21.30;;
21416;SDS011;10869;52.238;10.716;2024-03-07T02:45:15;31.50;;;20.70;;
21416;SDS011;10869;52.238;10.716;2024-03-07T02:47:41;33.90;;;21.07;;
21416;SDS011;10869;52.238;10.716;2024-03-07T02:50:09;31.83;;;20.17;;
21416;SDS011;10869;52.238;10.716;2024-03-07T02:52:35;29.23;;;20.17;;
21416;SDS011;10869;52.238;10.716;2024-03-07T02:55:01;34.37;;;20.90;;
21416;SDS011;10869;52.238;10.716;2024-03-07T02:57:30;37.47;;;23.57;;
21416;SDS011;10869;52.238;10.716;2024-03-07T02:59:56;31.13;;;20.43;;
21416;SDS011;10869;52.238;10.716;2024-03-07T03:02:21;31.67;;;22.20;;
21416;SDS011;10869;52.238;10.716;2024-03-07T03:04:48;33.53;;;20.83;;
21416;SDS011;10869;52.238;10.716;2024-03-07T03:07:13;35.77;;;21.67;;
21416;SDS011;10869;52.238;10.716;2024-03-07T03:09:39;30.67;;;20.57;;
21416;SDS011;10869;52.238;10.716;2024-03-07T03:12:11;33.17;;;20.97;;
21416;SDS011;10869;52.238;10.716;2024-03-07T03:14:37;36.10;;;22.80;;
21416;SDS011;10869;52.238;10.716;2024-03-07T03:17:03;36.33;;;22.90;;
21416;SDS011;10869;52.238;10.716;2024-03-07T03:19:29;35.17;;;22.23;;
21416;SDS011;10869;52.238;10.716;2024-03-07T03:21:55;32.87;;;21.57;;
21416;SDS011;10869;52.238;10.716;2024-03-07T03:24:23;37.03;;;23.83;;
21416;SDS011;10869;52.238;10.716;2024-03-07T03:26:49;31.67;;;22.33;;
21416;SDS011;10869;52.238;10.716;2024-03-07T03:29:14;34.17;;;22.23;;
21416;SDS011;10869;52.238;10.716;2024-03-07T03:31:43;31.03;;;21.17;;
21416;SDS011;10869;52.238;10.716;2024-03-07T03:34:08;38.00;;;23.43;;
21416;SDS011;10869;52.238;10.716;2024-03-07T03:36:35;32.63;;;21.30;;
21416;SDS011;10869;52.238;10.716;2024-03-07T03:39:00;37.27;;;25.23;;
21416;SDS011;10869;52.238;10.716;2024-03-07T03:41:26;36.63;;;24.03;;
21416;SDS011;10869;52.238;10.716;2024-03-07T03:43:52;36.27;;;23.80;;
21416;SDS011;10869;52.238;10.716;2024-03-07T03:46:18;43.20;;;26.03;;
21416;SDS011;10869;52.238;10.716;2024-03-07T03:48:44;48.67;;;27.20;;
21416;SDS011;10869;52.238;10.716;2024-03-07T03:51:09;47.20;;;26.87;;
21416;SDS011;10869;52.238;10.716;2024-03-07T03:53:38;52.80;;;28.50;;
21416;SDS011;10869;52.238;10.716;2024-03-07T03:56:04;54.00;;;29.70;;
21416;SDS011;10869;52.238;10.716;2024-03-07T03:58:31;54.90;;;30.27;;
21416;SDS011;10869;52.238;10.716;2024-03-07T04:00:57;64.13;;;33.57;;
21416;SDS011;10869;52.238;10.716;2024-03-07T04:03:25;65.13;;;33.30;;
21416;SDS011;10869;52.238;10.716;2024-03-07T04:05:51;69.50;;;33.80;;
21416;SDS011;10869;52.238;10.716;2024-03-07T04:08:17;67.97;;;34.20;;
21416;SDS011;10869;52.238;10.716;2024-03-07T04:10:45;67.77;;;35.13;;
21416;SDS011;10869;52.238;10.716;2024-03-07T04:13:11;77.27;;;38.07;;
21416;SDS011;10869;52.238;10.716;2024-03-07T04:15:36;76.93;;;37.60;;
21416;SDS011;10869;52.238;10.716;2024-03-07T04:18:02;74.27;;;36.23;;
21416;SDS011;10869;52.238;10.716;2024-03-07T04:20:28;90.83;;;41.10;;
21416;SDS011;10869;52.238;10.716;2024-03-07T04:22:57;81.57;;;38.53;;
21416;SDS011;10869;52.238;10.716;2024-03-07T04:25:22;89.47;;;40.63;;
21416;SDS011;10869;52.238;10.716;2024-03-07T04:27:50;98.90;;;43.17;;
21416;SDS011;10869;52.238;10.716;2024-03-07T04:30:16;92.03;;;42.63;;
21416;SDS011;10869;52.238;10.716;2024-03-07T04:32:42;100.50;;;43.57;;
21416;SDS011;10869;52.238;10.716;2024-03-07T04:35:08;102.83;;;44.93;;
21416;SDS011;10869;52.238;10.716;2024-03-07T04:37:35;104.73;;;46.37;;
21416;SDS011;10869;52.238;10.716;2024-03-07T04:40:06;110.30;;;45.33;;
21416;SDS011;10869;52.238;10.716;2024-03-07T04:42:43;102.40;;;45.90;;
21416;SDS011;10869;52.238;10.716;2024-03-07T04:45:11;114.00;;;46.03;;
21416;SDS011;10869;52.238;10.716;2024-03-07T04:47:41;110.40;;;47.03;;
21416;SDS011;10869;52.238;10.716;2024-03-07T04:50:09;103.03;;;45.67;;
21416;SDS011;10869;52.238;10.716;2024-03-07T04:52:36;109.60;;;45.97;;
21416;SDS011;10869;52.238;10.716;2024-03-07T04:55:03;113.33;;;46.40;;
21416;SDS011;10869;52.238;10.716;2024-03-07T04:57:33;118.87;;;48.63;;
21416;SDS011;10869;52.238;10.716;2024-03-07T05:00:00;113.43;;;47.03;;
21416;SDS011;10869;52.238;10.716;2024-03-07T05:02:26;130.30;;;50.07;;
21416;SDS011;10869;52.238;10.716;2024-03-07T05:04:52;120.60;;;49.40;;
21416;SDS011;10869;52.238;10.716;2024-03-07T05:10:39;118.23;;;50.10;;
21416;SDS011;10869;52.238;10.716;2024-03-07T05:13:06;112.83;;;50.80;;
21416;SDS011;10869;52.238;10.716;2024-03-07T05:18:27;127.30;;;51.53;;
21416;SDS011;10869;52.238;10.716;2024-03-07T05:20:53;129.40;;;50.23;;
21416;SDS011;10869;52.238;10.716;2024-03-07T05:26:41;134.73;;;52.20;;
21416;SDS011;10869;52.238;10.716;2024-03-07T05:29:08;121.30;;;52.30;;
21416;SDS011;10869;52.238;10.716;2024-03-07T05:31:34;137.37;;;52.90;;
21416;SDS011;10869;52.238;10.716;2024-03-07T05:34:02;145.63;;;53.97;;
21416;SDS011;10869;52.238;10.716;2024-03-07T05:36:37;115.17;;;47.63;;
21416;SDS011;10869;52.238;10.716;2024-03-07T05:42:32;124.40;;;51.13;;
21416;SDS011;10869;52.238;10.716;2024-03-07T05:44:57;138.13;;;51.30;;
21416;SDS011;10869;52.238;10.716;2024-03-07T05:47:23;130.37;;;52.83;;
21416;SDS011;10869;52.238;10.716;2024-03-07T05:49:49;135.07;;;51.13;;
21416;SDS011;10869;52.238;10.716;2024-03-07T05:52:15;124.23;;;49.03;;
21416;SDS011;10869;52.238;10.716;2024-03-07T05:54:41;135.57;;;50.90;;
21416;SDS011;10869;52.238;10.716;2024-03-07T05:57:08;133.70;;;54.43;;
21416;SDS011;10869;52.238;10.716;2024-03-07T05:59:35;145.10;;;52.23;;
21416;SDS011;10869;52.238;10.716;2024-03-07T06:02:01;146.17;;;52.77;;
21416;SDS011;10869;52.238;10.716;2024-03-07T06:04:26;134.93;;;53.03;;
21416;SDS011;10869;52.238;10.716;2024-03-07T06:06:52;157.67;;;55.43;;
21416;SDS011;10869;52.238;10.716;2024-03-07T06:09:19;161.30;;;55.70;;
21416;SDS011;10869;52.238;10.716;2024-03-07T06:11:47;206.83;;;63.13;;
21416;SDS011;10869;52.238;10.716;2024-03-07T06:14:14;179.63;;;61.07;;
21416;SDS011;10869;52.238;10.716;2024-03-07T06:16:41;190.50;;;61.90;;
21416;SDS011;10869;52.238;10.716;2024-03-07T06:19:07;208.67;;;62.77;;
21416;SDS011;10869;52.238;10.716;2024-03-07T06:21:34;211.83;;;64.63;;
21416;SDS011;10869;52.238;10.716;2024-03-07T06:24:01;234.30;;;68.23;;
21416;SDS011;10869;52.238;10.716;2024-03-07T06:26:28;231.50;;;64.87;;
21416;SDS011;10869;52.238;10.716;2024-03-07T06:29:13;213.27;;;65.13;;
21416;SDS011;10869;52.238;10.716;2024-03-07T06:31:43;202.30;;;62.80;;
21416;SDS011;10869;52.238;10.716;2024-03-07T06:34:12;204.30;;;64.37;;
21416;SDS011;10869;52.238;10.716;2024-03-07T06:36:38;228.47;;;63.80;;
21416;SDS011;10869;52.238;10.716;2024-03-07T06:39:05;213.27;;;61.83;;
21416;SDS011;10869;52.238;10.716;2024-03-07T06:41:32;257.97;;;65.60;;
21416;SDS011;10869;52.238;10.716;2024-03-07T06:43:58;208.80;;;64.30;;
21416;SDS011;10869;52.238;10.716;2024-03-07T06:46:24;234.83;;;65.30;;
21416;SDS011;10869;52.238;10.716;2024-03-07T06:48:50;202.80;;;62.60;;
21416;SDS011;10869;52.238;10.716;2024-03-07T06:51:16;177.00;;;59.37;;
21416;SDS011;10869;52.238;10.716;2024-03-07T06:53:45;184.53;;;58.23;;
21416;SDS011;10869;52.238;10.716;2024-03-07T06:56:15;206.40;;;62.73;;
21416;SDS011;10869;52.238;10.716;2024-03-07T06:58:41;208.13;;;63.03;;
21416;SDS011;10869;52.238;10.716;2024-03-07T07:01:08;188.67;;;62.13;;
21416;SDS011;10869;52.238;10.716;2024-03-07T07:03:37;220.23;;;65.43;;
21416;SDS011;10869;52.238;10.716;2024-03-07T07:09:38;177.00;;;57.73;;
21416;SDS011;10869;52.238;10.716;2024-03-07T07:15:26;166.83;;;54.97;;
21416;SDS011;10869;52.238;10.716;2024-03-07T07:21:14;184.73;;;57.47;;
21416;SDS011;10869;52.238;10.716;2024-03-07T07:23:41;191.80;;;60.57;;
21416;SDS011;10869;52.238;10.716;2024-03-07T07:29:29;194.93;;;60.17;;
21416;SDS011;10869;52.238;10.716;2024-03-07T07:31:55;204.07;;;59.80;;
21416;SDS011;10869;52.238;10.716;2024-03-07T07:37:44;185.03;;;59.80;;
21416;SDS011;10869;52.238;10.716;2024-03-07T07:43:33;204.43;;;62.83;;
21416;SDS011;10869;52.238;10.716;2024-03-07T07:45:59;181.70;;;58.20;;
21416;SDS011;10869;52.238;10.716;2024-03-07T07:48:26;184.57;;;59.87;;
21416;SDS011;10869;52.238;10.716;2024-03-07T07:50:52;167.43;;;56.30;;
21416;SDS011;10869;52.238;10.716;2024-03-07T07:56:39;161.07;;;55.27;;
21416;SDS011;10869;52.238;10.716;2024-03-07T07:59:05;178.10;;;56.23;;
21416;SDS011;10869;52.238;10.716;2024-03-07T08:01:34;182.17;;;56.63;;
21416;SDS011;10869;52.238;10.716;2024-03-07T08:07:22;185.30;;;63.37;;
21416;SDS011;10869;52.238;10.716;2024-03-07T08:09:48;164.77;;;56.47;;
21416;SDS011;10869;52.238;10.716;2024-03-07T08:12:14;180.23;;;58.97;;
21416;SDS011;10869;52.238;10.716;2024-03-07T08:14:39;157.63;;;56.20;;
21416;SDS011;10869;52.238;10.716;2024-03-07T08:17:05;171.93;;;59.13;;
21416;SDS011;10869;52.238;10.716;2024-03-07T08:19:31;153.83;;;56.27;;
21416;SDS011;10869;52.238;10.716;2024-03-07T08:27:05;145.33;;;52.50;;
21416;SDS011;10869;52.238;10.716;2024-03-07T08:29:35;161.20;;;55.67;;
21416;SDS011;10869;52.238;10.716;2024-03-07T08:32:01;142.37;;;53.43;;
21416;SDS011;10869;52.238;10.716;2024-03-07T08:34:28;149.70;;;57.33;;
21416;SDS011;10869;52.238;10.716;2024-03-07T08:36:53;135.03;;;54.97;;
21416;SDS011;10869;52.238;10.716;2024-03-07T08:39:19;130.40;;;55.20;;
21416;SDS011;10869;52.238;10.716;2024-03-07T08:41:50;132.13;;;53.30;;
21416;SDS011;10869;52.238;10.716;2024-03-07T08:44:26;131.03;;;49.87;;
21416;SDS011;10869;52.238;10.716;2024-03-07T08:46:51;118.70;;;51.07;;
21416;SDS011;10869;52.238;10.716;2024-03-07T08:49:17;120.93;;;49.90;;
21416;SDS011;10869;52.238;10.716;2024-03-07T08:51:43;121.40;;;47.30;;
21416;SDS011;10869;52.238;10.716;2024-03-07T08:54:09;111.43;;;47.20;;
21416;SDS011;10869;52.238;10.716;2024-03-07T08:56:35;104.70;;;46.27;;
21416;SDS011;10869;52.238;10.716;2024-03-07T08:59:01;109.47;;;46.77;;
21416;SDS011;10869;52.238;10.716;2024-03-07T09:01:30;106.60;;;45.90;;
21416;SDS011;10869;52.238;10.716;2024-03-07T09:03:55;111.27;;;48.07;;
21416;SDS011;10869;52.238;10.716;2024-03-07T09:06:24;100.87;;;47.47;;
21416;SDS011;10869;52.238;10.716;2024-03-07T09:08:50;98.80;;;45.03;;
21416;SDS011;10869;52.238;10.716;2024-03-07T09:11:16;100.43;;;46.67;;
21416;SDS011;10869;52.238;10.716;2024-03-07T09:13:42;97.77;;;44.73;;
21416;SDS011;10869;52.238;10.716;2024-03-07T09:16:08;93.57;;;44.17;;
21416;SDS011;10869;52.238;10.716;2024-03-07T09:21:56;93.90;;;43.33;;
21416;SDS011;10869;52.238;10.716;2024-03-07T09:24:22;99.17;;;43.77;;
21416;SDS011;10869;52.238;10.716;2024-03-07T09:26:48;87.20;;;41.73;;
21416;SDS011;10869;52.238;10.716;2024-03-07T09:29:15;97.90;;;44.07;;
21416;SDS011;10869;52.238;10.716;2024-03-07T09:31:44;82.07;;;40.43;;
21416;SDS011;10869;52.238;10.716;2024-03-07T09:34:11;77.60;;;38.67;;
21416;SDS011;10869;52.238;10.716;2024-03-07T09:36:38;72.53;;;36.67;;
21416;SDS011;10869;52.238;10.716;2024-03-07T09:39:07;58.33;;;30.67;;
21416;SDS011;10869;52.238;10.716;2024-03-07T09:41:40;64.73;;;32.20;;
21416;SDS011;10869;52.238;10.716;2024-03-07T09:44:10;60.73;;;32.57;;
21416;SDS011;10869;52.238;10.716;2024-03-07T09:46:47;55.10;;;29.47;;
21416;SDS011;10869;52.238;10.716;2024-03-07T09:49:14;55.93;;;30.00;;
21416;SDS011;10869;52.238;10.716;2024-03-07T09:52:00;53.53;;;29.33;;
21416;SDS011;10869;52.238;10.716;2024-03-07T09:54:38;56.67;;;27.77;;
21416;SDS011;10869;52.238;10.716;2024-03-07T09:57:09;53.23;;;27.87;;
21416;SDS011;10869;52.238;10.716;2024-03-07T09:59:40;60.37;;;28.90;;
21416;SDS011;10869;52.238;10.716;2024-03-07T10:05:59;63.80;;;30.97;;
21416;SDS011;10869;52.238;10.716;2024-03-07T10:32:57;54.97;;;29.80;;
21416;SDS011;10869;52.238;10.716;2024-03-07T10:44:47;53.13;;;31.77;;
21416;SDS011;10869;52.238;10.716;2024-03-07T11:00:10;49.50;;;28.30;;
21416;SDS011;10869;52.238;10.716;2024-03-07T11:02:56;48.30;;;27.97;;
21416;SDS011;10869;52.238;10.716;2024-03-07T11:05:28;59.13;;;28.90;;
21416;SDS011;10869;52.238;10.716;2024-03-07T11:07:58;55.37;;;30.67;;
21416;SDS011;10869;52.238;10.716;2024-03-07T11:10:27;52.40;;;29.67;;
21416;SDS011;10869;52.238;10.716;2024-03-07T11:16:40;44.83;;;25.27;;
21416;SDS011;10869;52.238;10.716;2024-03-07T11:19:26;54.47;;;29.10;;
21416;SDS011;10869;52.238;10.716;2024-03-07T11:22:06;50.37;;;27.73;;
21416;SDS011;10869;52.238;10.716;2024-03-07T11:25:06;51.60;;;26.50;;
21416;SDS011;10869;52.238;10.716;2024-03-07T11:28:11;43.03;;;26.37;;
21416;SDS011;10869;52.238;10.716;2024-03-07T11:30:45;41.30;;;25.33;;
21416;SDS011;10869;52.238;10.716;2024-03-07T11:33:11;48.17;;;26.33;;
21416;SDS011;10869;52.238;10.716;2024-03-07T11:35:39;47.57;;;25.93;;
21416;SDS011;10869;52.238;10.716;2024-03-07T11:38:14;42.70;;;24.03;;
21416;SDS011;10869;52.238;10.716;2024-03-07T11:43:07;37.50;;;21.90;;
21416;SDS011;10869;52.238;10.716;2024-03-07T11:45:33;41.43;;;22.73;;
21416;SDS011;10869;52.238;10.716;2024-03-07T11:48:03;41.30;;;23.03;;
21416;SDS011;10869;52.238;10.716;2024-03-07T11:50:35;45.03;;;22.93;;
21416;SDS011;10869;52.238;10.716;2024-03-07T11:53:03;37.10;;;21.20;;
21416;SDS011;10869;52.238;10.716;2024-03-07T11:55:35;39.77;;;21.30;;
21416;SDS011;10869;52.238;10.716;2024-03-07T11:58:30;39.63;;;22.67;;
21416;SDS011;10869;52.238;10.716;2024-03-07T12:00:57;35.07;;;21.43;;
21416;SDS011;10869;52.238;10.716;2024-03-07T12:03:23;34.47;;;19.83;;
21416;SDS011;10869;52.238;10.716;2024-03-07T12:05:51;38.93;;;20.90;;
21416;SDS011;10869;52.238;10.716;2024-03-07T12:08:17;40.80;;;21.80;;
21416;SDS011;10869;52.238;10.716;2024-03-07T12:10:47;35.43;;;21.90;;
21416;SDS011;10869;52.238;10.716;2024-03-07T12:13:18;39.20;;;21.93;;
21416;SDS011;10869;52.238;10.716;2024-03-07T12:15:44;35.93;;;21.37;;
21416;SDS011;10869;52.238;10.716;2024-03-07T12:18:17;71.17;;;35.53;;
21416;SDS011;10869;52.238;10.716;2024-03-07T12:26:48;49.07;;;27.40;;
21416;SDS011;10869;52.238;10.716;2024-03-07T12:32:36;40.00;;;22.50;;
21416;SDS011;10869;52.238;10.716;2024-03-07T12:35:04;36.43;;;20.57;;
21416;SDS011;10869;52.238;10.716;2024-03-07T12:37:40;36.87;;;22.43;;
21416;SDS011;10869;52.238;10.716;2024-03-07T12:40:13;40.87;;;21.17;;
21416;SDS011;10869;52.238;10.716;2024-03-07T12:46:06;51.43;;;26.83;;
21416;SDS011;10869;52.238;10.716;2024-03-07T12:51:56;32.53;;;19.57;;
21416;SDS011;10869;52.238;10.716;2024-03-07T12:57:44;37.80;;;23.60;;
21416;SDS011;10869;52.238;10.716;2024-03-07T13:02:46;30.67;;;17.10;;
21416;SDS011;10869;52.238;10.716;2024-03-07T13:08:35;34.63;;;17.67;;
21416;SDS011;10869;52.238;10.716;2024-03-07T13:14:23;28.07;;;17.27;;
21416;SDS011;10869;52.238;10.716;2024-03-07T13:20:12;29.20;;;17.43;;
21416;SDS011;10869;52.238;10.716;2024-03-07T13:22:44;28.93;;;17.23;;
21416;SDS011;10869;52.238;10.716;2024-03-07T13:25:21;30.17;;;16.80;;
21416;SDS011;10869;52.238;10.716;2024-03-07T13:30:43;27.80;;;16.37;;
21416;SDS011;10869;52.238;10.716;2024-03-07T13:33:15;29.70;;;17.23;;
21416;SDS011;10869;52.238;10.716;2024-03-07T13:35:45;33.60;;;17.77;;
21416;SDS011;10869;52.238;10.716;2024-03-07T13:41:14;27.93;;;17.33;;
21416;SDS011;10869;52.238;10.716;2024-03-07T13:43:43;26.87;;;17.07;;
21416;SDS011;10869;52.238;10.716;2024-03-07T13:50:37;29.07;;;16.90;;
21416;SDS011;10869;52.238;10.716;2024-03-07T14:48:07;20.53;;;13.93;;
21416;SDS011;10869;52.238;10.716;2024-03-07T14:50:40;25.13;;;15.10;;
21416;SDS011;10869;52.238;10.716;2024-03-07T14:53:11;27.30;;;15.87;;
21416;SDS011;10869;52.238;10.716;2024-03-07T14:55:39;27.00;;;15.30;;
21416;SDS011;10869;52.238;10.716;2024-03-07T14:58:05;22.43;;;14.40;;
21416;SDS011;10869;52.238;10.716;2024-03-07T15:00:34;23.47;;;13.93;;
21416;SDS011;10869;52.238;10.716;2024-03-07T15:03:06;26.07;;;14.70;;
21416;SDS011;10869;52.238;10.716;2024-03-07T15:05:34;27.33;;;14.47;;
21416;SDS011;10869;52.238;10.716;2024-03-07T15:23:32;27.30;;;14.03;;
21416;SDS011;10869;52.238;10.716;2024-03-07T15:25:58;24.50;;;17.10;;
21416;SDS011;10869;52.238;10.716;2024-03-07T15:33:35;26.83;;;16.80;;
21416;SDS011;10869;52.238;10.716;2024-03-07T15:36:01;23.70;;;14.93;;
21416;SDS011;10869;52.238;10.716;2024-03-07T15:41:52;31.53;;;20.20;;
21416;SDS011;10869;52.238;10.716;2024-03-07T15:44:19;25.40;;;15.90;;
21416;SDS011;10869;52.238;10.716;2024-03-07T15:46:45;23.03;;;14.43;;
21416;SDS011;10869;52.238;10.716;2024-03-07T15:49:11;24.27;;;14.53;;
21416;SDS011;10869;52.238;10.716;2024-03-07T15:51:38;20.27;;;13.30;;
21416;SDS011;10869;52.238;10.716;2024-03-07T15:54:04;26.20;;;15.47;;
21416;SDS011;10869;52.238;10.716;2024-03-07T15:56:30;20.90;;;13.70;;
21416;SDS011;10869;52.238;10.716;2024-03-07T15:58:56;22.63;;;12.30;;
21416;SDS011;10869;52.238;10.716;2024-03-07T16:01:22;25.23;;;13.13;;
21416;SDS011;10869;52.238;10.716;2024-03-07T16:03:47;20.23;;;13.03;;
21416;SDS011;10869;52.238;10.716;2024-03-07T16:06:14;23.53;;;13.13;;
21416;SDS011;10869;52.238;10.716;2024-03-07T16:08:41;25.20;;;14.30;;
21416;SDS011;10869;52.238;10.716;2024-03-07T16:11:07;20.90;;;13.23;;
21416;SDS011;10869;52.238;10.716;2024-03-07T16:13:34;25.97;;;14.27;;
21416;SDS011;10869;52.238;10.716;2024-03-07T16:16:00;20.60;;;13.37;;
21416;SDS011;10869;52.238;10.716;2024-03-07T16:18:29;21.80;;;13.27;;
21416;SDS011;10869;52.238;10.716;2024-03-07T16:20:55;19.80;;;12.40;;
21416;SDS011;10869;52.238;10.716;2024-03-07T16:23:22;27.50;;;13.70;;
21416;SDS011;10869;52.238;10.716;2024-03-07T16:25:51;22.23;;;12.97;;
21416;SDS011;10869;52.238;10.716;2024-03-07T16:28:17;23.40;;;13.90;;
21416;SDS011;10869;52.238;10.716;2024-03-07T16:34:08;22.77;;;13.93;;
21416;SDS011;10869;52.238;10.716;2024-03-07T16:39:56;24.17;;;12.53;;
21416;SDS011;10869;52.238;10.716;2024-03-07T16:45:44;21.87;;;14.47;;
21416;SDS011;10869;52.238;10.716;2024-03-07T16:48:10;25.27;;;14.20;;
21416;SDS011;10869;52.238;10.716;2024-03-07T16:50:36;24.13;;;13.43;;
21416;SDS011;10869;52.238;10.716;2024-03-07T16:53:05;23.00;;;14.67;;
21416;SDS011;10869;52.238;10.716;2024-03-07T16:55:34;23.47;;;15.13;;
21416;SDS011;10869;52.238;10.716;2024-03-07T16:58:04;26.57;;;14.40;;
21416;SDS011;10869;52.238;10.716;2024-03-07T17:00:36;22.10;;;14.57;;
21416;SDS011;10869;52.238;10.716;2024-03-07T17:03:04;26.13;;;14.57;;
21416;SDS011;10869;52.238;10.716;2024-03-07T17:08:53;20.00;;;11.90;;
21416;SDS011;10869;52.238;10.716;2024-03-07T17:11:19;22.57;;;12.97;;
21416;SDS011;10869;52.238;10.716;2024-03-07T17:13:55;21.27;;;13.10;;
21416;SDS011;10869;52.238;10.716;2024-03-07T17:19:47;23.87;;;12.73;;
21416;SDS011;10869;52.238;10.716;2024-03-07T17:22:14;20.37;;;13.47;;
21416;SDS011;10869;52.238;10.716;2024-03-07T17:24:45;21.40;;;13.77;;
21416;SDS011;10869;52.238;10.716;2024-03-07T17:27:13;23.07;;;13.30;;
21416;SDS011;10869;52.238;10.716;2024-03-07T17:29:39;21.90;;;14.87;;
21416;SDS011;10869;52.238;10.716;2024-03-07T17:32:08;23.30;;;14.30;;
21416;SDS011;10869;52.238;10.716;2024-03-07T17:34:37;24.90;;;12.97;;
21416;SDS011;10869;52.238;10.716;2024-03-07T17:37:03;22.60;;;13.87;;
21416;SDS011;10869;52.238;10.716;2024-03-07T17:39:31;28.10;;;13.87;;
21416;SDS011;10869;52.238;10.716;2024-03-07T17:41:58;28.33;;;14.83;;
21416;SDS011;10869;52.238;10.716;2024-03-07T17:44:24;25.93;;;15.03;;
21416;SDS011;10869;52.238;10.716;2024-03-07T17:50:13;26.50;;;15.10;;
21416;SDS011;10869;52.238;10.716;2024-03-07T17:52:43;25.53;;;16.00;;
21416;SDS011;10869;52.238;10.716;2024-03-07T17:55:11;27.33;;;15.57;;
21416;SDS011;10869;52.238;10.716;2024-03-07T17:57:40;34.33;;;15.20;;
21416;SDS011;10869;52.238;10.716;2024-03-07T18:00:08;23.43;;;14.07;;
21416;SDS011;10869;52.238;10.716;2024-03-07T18:06:03;27.80;;;15.30;;
21416;SDS011;10869;52.238;10.716;2024-03-07T18:08:32;25.27;;;14.40;;
21416;SDS011;10869;52.238;10.716;2024-03-07T18:10:59;28.47;;;15.23;;
21416;SDS011;10869;52.238;10.716;2024-03-07T18:16:47;30.17;;;17.50;;
21416;SDS011;10869;52.238;10.716;2024-03-07T18:22:37;27.93;;;16.83;;
21416;SDS011;10869;52.238;10.716;2024-03-07T18:28:25;46.77;;;21.13;;
21416;SDS011;10869;52.238;10.716;2024-03-07T18:31:01;37.77;;;20.27;;
21416;SDS011;10869;52.238;10.716;2024-03-07T18:40:23;30.80;;;16.47;;
21416;SDS011;10869;52.238;10.716;2024-03-07T18:42:49;27.37;;;16.37;;
21416;SDS011;10869;52.238;10.716;2024-03-07T18:45:18;25.47;;;14.20;;